createdAt,value
2022-08-12T00:00:33.990Z,16.81
2022-08-12T00:02:02.927Z,16.79
2022-08-12T00:02:42.813Z,16.84
2022-08-12T00:03:47.147Z,16.83
2022-08-12T00:04:51.592Z,16.82
2022-08-12T00:06:01.919Z,16.93
2022-08-12T00:07:00.349Z,17.02
2022-08-12T00:08:04.642Z,16.99
2022-08-12T00:09:09.088Z,16.98
2022-08-12T00:10:13.480Z,16.90
2022-08-12T00:11:17.871Z,16.87
2022-08-12T00:12:22.276Z,17.03
2022-08-12T00:13:26.661Z,17.05
2022-08-12T00:14:31.061Z,17.07
2022-08-12T00:15:35.418Z,17.04
2022-08-12T00:16:39.807Z,17.02
2022-08-12T00:17:44.209Z,17.04
2022-08-12T00:18:48.622Z,17.03
2022-08-12T00:19:52.945Z,17.06
2022-08-12T00:20:57.487Z,17.09
2022-08-12T00:22:01.792Z,17.14
2022-08-12T00:23:06.128Z,17.10
2022-08-12T00:24:10.584Z,17.05
2022-08-12T00:25:14.932Z,17.00
2022-08-12T00:26:22.470Z,17.03
2022-08-12T00:27:27.415Z,16.99
2022-08-12T00:28:28.200Z,17.01
2022-08-12T00:29:32.595Z,16.97
2022-08-12T00:30:36.970Z,16.98
2022-08-12T00:31:41.417Z,17.03
2022-08-12T00:32:54.272Z,17.06
2022-08-12T00:33:52.434Z,17.09
2022-08-12T00:34:54.599Z,17.09
2022-08-12T00:35:58.987Z,17.23
2022-08-12T00:37:10.701Z,17.25
2022-08-12T00:38:07.704Z,17.20
2022-08-12T00:39:12.262Z,17.23
2022-08-12T00:40:16.553Z,17.15
2022-08-12T00:41:20.956Z,17.10
2022-08-12T00:42:25.347Z,17.08
2022-08-12T00:43:29.723Z,17.14
2022-08-12T00:44:34.127Z,17.18
2022-08-12T00:45:38.481Z,17.21
2022-08-12T00:46:42.887Z,17.24
2022-08-12T00:47:47.290Z,17.22
2022-08-12T00:48:51.672Z,17.19
2022-08-12T00:49:56.156Z,17.19
2022-08-12T00:51:00.434Z,17.31
2022-08-12T00:52:18.838Z,17.35
2022-08-12T00:53:22.053Z,17.41
2022-08-12T00:54:26.446Z,17.41
2022-08-12T00:55:30.857Z,17.39
2022-08-12T00:56:35.233Z,17.33
2022-08-12T00:57:39.608Z,17.33
2022-08-12T00:58:43.988Z,17.29
2022-08-12T00:59:48.363Z,17.30
2022-08-12T01:00:52.856Z,17.28
2022-08-12T01:02:02.380Z,17.29
2022-08-12T01:03:01.594Z,17.31
2022-08-12T01:04:06.010Z,17.40
2022-08-12T01:05:10.396Z,17.42
2022-08-12T01:06:14.780Z,17.45
2022-08-12T01:07:19.083Z,17.44
2022-08-12T01:08:23.570Z,17.41
2022-08-12T01:09:27.930Z,17.36
2022-08-12T01:10:32.963Z,17.39
2022-08-12T01:11:36.670Z,17.38
2022-08-12T01:12:41.297Z,17.38
2022-08-12T01:13:45.417Z,17.35
2022-08-12T01:14:49.812Z,17.33
2022-08-12T01:15:54.215Z,17.31
2022-08-12T01:16:58.588Z,17.30
2022-08-12T01:18:02.943Z,17.30
2022-08-12T01:19:07.334Z,17.34
2022-08-12T01:20:11.751Z,17.40
2022-08-12T01:21:16.163Z,17.46
2022-08-12T01:22:20.527Z,17.52
2022-08-12T01:23:24.923Z,17.54
2022-08-12T01:24:31.460Z,17.53
2022-08-12T01:25:34.449Z,17.52
2022-08-12T01:26:38.055Z,17.45
2022-08-12T01:27:42.453Z,17.42
2022-08-12T01:28:46.745Z,17.47
2022-08-12T01:29:51.185Z,17.59
2022-08-12T01:30:55.601Z,17.57
2022-08-12T01:31:59.962Z,17.55
2022-08-12T01:33:04.356Z,17.53
2022-08-12T01:34:35.674Z,17.53
2022-08-12T01:35:13.132Z,17.51
2022-08-12T01:36:17.451Z,17.48
2022-08-12T01:37:21.913Z,17.47
2022-08-12T01:38:29.968Z,17.46
2022-08-12T01:39:30.853Z,17.46
2022-08-12T01:40:38.188Z,17.47
2022-08-12T01:41:39.566Z,17.45
2022-08-12T01:42:43.993Z,17.43
2022-08-12T01:43:48.310Z,17.41
2022-08-12T01:44:52.753Z,17.40
2022-08-12T01:45:57.697Z,17.40
2022-08-12T01:47:01.508Z,17.41
2022-08-12T01:48:05.882Z,17.43
2022-08-12T01:49:10.273Z,17.39
2022-08-12T01:50:14.638Z,17.48
2022-08-12T01:52:14.820Z,17.46
2022-08-12T01:52:23.458Z,17.50
2022-08-12T01:53:27.877Z,17.53
2022-08-12T01:54:32.272Z,17.54
2022-08-12T01:55:36.683Z,17.53
2022-08-12T01:56:41.048Z,17.54
2022-08-12T01:57:58.487Z,17.53
2022-08-12T01:58:49.834Z,17.52
2022-08-12T01:59:54.194Z,17.51
2022-08-12T02:00:58.728Z,17.49
2022-08-12T02:02:02.989Z,17.47
2022-08-12T02:03:07.365Z,17.46
2022-08-12T02:04:11.689Z,17.43
2022-08-12T02:05:16.116Z,17.45
2022-08-12T02:06:20.616Z,17.48
2022-08-12T02:07:24.981Z,17.47
2022-08-12T02:08:29.381Z,17.45
2022-08-12T02:09:33.872Z,17.40
2022-08-12T02:10:51.214Z,17.39
2022-08-12T02:11:42.606Z,17.42
2022-08-12T02:12:47.067Z,17.43
2022-08-12T02:13:51.312Z,17.43
2022-08-12T02:14:55.778Z,17.38
2022-08-12T02:16:00.153Z,17.36
2022-08-12T02:17:04.562Z,17.38
2022-08-12T02:18:08.914Z,17.37
2022-08-12T02:19:22.296Z,17.41
2022-08-12T02:20:17.591Z,17.43
2022-08-12T02:21:22.035Z,17.44
2022-08-12T02:22:29.421Z,17.39
2022-08-12T02:23:32.908Z,17.45
2022-08-12T02:24:37.320Z,17.50
2022-08-12T02:25:41.698Z,17.49
2022-08-12T02:26:46.170Z,17.48
2022-08-12T02:27:50.462Z,17.47
2022-08-12T02:28:54.843Z,17.44
2022-08-12T02:29:59.226Z,17.42
2022-08-12T02:31:03.629Z,17.40
2022-08-12T02:32:08.015Z,17.38
2022-08-12T02:33:12.409Z,17.36
2022-08-12T02:34:16.664Z,17.35
2022-08-12T02:35:21.172Z,17.34
2022-08-12T02:36:25.543Z,17.33
2022-08-12T02:37:29.932Z,17.33
2022-08-12T02:38:34.306Z,17.33
2022-08-12T02:39:38.809Z,17.32
2022-08-12T02:40:43.146Z,17.31
2022-08-12T02:41:47.461Z,17.30
2022-08-12T02:42:51.862Z,17.28
2022-08-12T02:43:56.252Z,17.26
2022-08-12T02:45:00.606Z,17.24
2022-08-12T02:46:05.002Z,17.21
2022-08-12T02:47:55.564Z,17.19
2022-08-12T02:48:13.723Z,17.16
2022-08-12T02:49:18.154Z,17.14
2022-08-12T02:50:22.530Z,17.11
2022-08-12T02:51:26.934Z,17.07
2022-08-12T02:52:31.418Z,17.02
2022-08-12T02:53:35.709Z,16.97
2022-08-12T02:54:40.124Z,16.93
2022-08-12T02:55:44.441Z,16.90
2022-08-12T02:56:51.062Z,16.86
2022-08-12T02:57:53.208Z,16.84
2022-08-12T02:58:57.557Z,16.82
2022-08-12T03:00:01.925Z,16.82
2022-08-12T03:01:06.362Z,16.80
2022-08-12T03:02:10.666Z,16.80
2022-08-12T03:03:17.958Z,16.78
2022-08-12T03:04:21.504Z,16.76
2022-08-12T03:05:25.882Z,16.75
2022-08-12T03:06:30.336Z,16.76
2022-08-12T03:07:34.656Z,16.77
2022-08-12T03:08:39.033Z,16.78
2022-08-12T03:10:03.624Z,16.78
2022-08-12T03:10:49.022Z,16.77
2022-08-12T03:11:52.280Z,16.77
2022-08-12T03:12:56.649Z,16.77
2022-08-12T03:14:01.033Z,16.78
2022-08-12T03:15:05.377Z,16.77
2022-08-12T03:16:09.766Z,16.76
2022-08-12T03:17:14.165Z,16.74
2022-08-12T03:18:27.299Z,16.74
2022-08-12T03:19:22.905Z,16.73
2022-08-12T03:20:28.585Z,16.73
2022-08-12T03:21:52.659Z,16.72
2022-08-12T03:22:36.040Z,16.72
2022-08-12T03:23:40.425Z,16.72
2022-08-12T03:24:44.805Z,16.72
2022-08-12T03:25:49.222Z,16.71
2022-08-12T03:26:53.665Z,16.71
2022-08-12T03:27:58.090Z,16.70
2022-08-12T03:29:02.463Z,16.69
2022-08-12T03:30:06.885Z,16.69
2022-08-12T03:31:11.233Z,16.68
2022-08-12T03:32:35.074Z,16.67
2022-08-12T03:33:20.002Z,16.67
2022-08-12T03:34:24.311Z,16.68
2022-08-12T03:35:40.980Z,16.68
2022-08-12T03:36:33.081Z,16.68
2022-08-12T03:37:37.482Z,16.68
2022-08-12T03:38:41.923Z,16.69
2022-08-12T03:39:46.332Z,16.68
2022-08-12T03:40:50.643Z,16.68
2022-08-12T03:41:55.090Z,16.67
2022-08-12T03:42:59.447Z,16.67
2022-08-12T03:44:03.845Z,16.66
2022-08-12T03:45:08.218Z,16.67
2022-08-12T03:46:12.651Z,16.69
2022-08-12T03:47:17.050Z,16.71
2022-08-12T03:48:21.469Z,16.72
2022-08-12T03:49:25.842Z,16.73
2022-08-12T03:50:30.186Z,16.73
2022-08-12T03:51:34.574Z,16.73
2022-08-12T03:52:39.113Z,16.71
2022-08-12T03:53:43.339Z,16.70
2022-08-12T03:54:47.755Z,16.69
2022-08-12T03:55:52.136Z,16.67
2022-08-12T03:56:56.511Z,16.64
2022-08-12T03:58:00.954Z,16.62
2022-08-12T03:59:05.375Z,16.60
2022-08-12T04:00:09.719Z,16.59
2022-08-12T04:01:14.289Z,16.59
2022-08-12T04:02:18.539Z,16.61
2022-08-12T04:03:22.952Z,16.63
2022-08-12T04:04:27.328Z,16.63
2022-08-12T04:05:55.427Z,16.64
2022-08-12T04:06:36.137Z,16.65
2022-08-12T04:07:51.143Z,16.67
2022-08-12T04:08:44.842Z,16.68
2022-08-12T04:09:49.262Z,16.69
2022-08-12T04:10:53.617Z,16.69
2022-08-12T04:11:57.988Z,16.68
2022-08-12T04:13:02.323Z,16.67
2022-08-12T04:14:06.875Z,16.65
2022-08-12T04:15:11.219Z,16.64
2022-08-12T04:16:15.601Z,16.65
2022-08-12T04:17:19.981Z,16.66
2022-08-12T04:18:24.377Z,16.66
2022-08-12T04:19:28.757Z,16.64
2022-08-12T04:20:33.180Z,16.63
2022-08-12T04:21:37.565Z,16.63
2022-08-12T04:22:42.032Z,16.65
2022-08-12T04:23:48.639Z,16.68
2022-08-12T04:24:50.799Z,16.71
2022-08-12T04:25:55.167Z,16.74
2022-08-12T04:26:59.574Z,16.77
2022-08-12T04:28:13.169Z,16.80
2022-08-12T04:29:08.309Z,16.83
2022-08-12T04:30:29.190Z,16.86
2022-08-12T04:31:17.039Z,16.89
2022-08-12T04:32:21.510Z,16.90
2022-08-12T04:33:25.852Z,16.92
2022-08-12T04:34:30.227Z,16.94
2022-08-12T04:35:34.685Z,16.94
2022-08-12T04:36:39.099Z,16.93
2022-08-12T04:37:58.486Z,16.94
2022-08-12T04:38:47.897Z,16.95
2022-08-12T04:39:52.407Z,16.98
2022-08-12T04:40:56.722Z,16.98
2022-08-12T04:42:01.094Z,17.00
2022-08-12T04:43:05.442Z,17.02
2022-08-12T04:44:09.869Z,17.02
2022-08-12T04:45:14.266Z,17.02
2022-08-12T04:46:23.346Z,17.03
2022-08-12T04:47:23.101Z,17.04
2022-08-12T04:48:27.480Z,17.04
2022-08-12T04:49:31.865Z,17.06
2022-08-12T04:50:37.287Z,17.09
2022-08-12T04:51:40.702Z,17.10
2022-08-12T04:52:45.063Z,17.11
2022-08-12T04:53:49.501Z,17.13
2022-08-12T04:54:53.924Z,17.15
2022-08-12T04:55:58.281Z,17.16
2022-08-12T04:57:04.111Z,17.17
2022-08-12T04:58:07.027Z,17.18
2022-08-12T04:59:11.469Z,17.20
2022-08-12T05:00:15.897Z,17.24
2022-08-12T05:01:20.350Z,17.26
2022-08-12T05:02:24.818Z,17.30
2022-08-12T05:03:29.092Z,17.33
2022-08-12T05:04:33.533Z,17.36
2022-08-12T05:05:37.925Z,17.38
2022-08-12T05:06:42.309Z,17.40
2022-08-12T05:07:54.342Z,17.42
2022-08-12T05:08:51.113Z,17.44
2022-08-12T05:10:02.044Z,17.46
2022-08-12T05:10:59.951Z,17.48
2022-08-12T05:12:04.360Z,17.53
2022-08-12T05:13:08.780Z,17.57
2022-08-12T05:14:13.202Z,17.62
2022-08-12T05:15:27.711Z,17.66
2022-08-12T05:16:25.943Z,17.70
2022-08-12T05:17:27.279Z,17.73
2022-08-12T05:18:31.718Z,17.76
2022-08-12T05:19:35.768Z,17.80
2022-08-12T05:20:40.073Z,17.83
2022-08-12T05:21:44.470Z,17.88
2022-08-12T05:22:48.883Z,17.93
2022-08-12T05:23:53.271Z,17.98
2022-08-12T05:24:57.662Z,18.04
2022-08-12T05:26:02.063Z,18.10
2022-08-12T05:27:06.493Z,18.15
2022-08-12T05:28:10.862Z,18.20
2022-08-12T05:30:07.294Z,18.27
2022-08-12T05:30:19.718Z,18.32
2022-08-12T05:31:42.480Z,18.38
2022-08-12T05:32:28.511Z,18.44
2022-08-12T05:33:32.945Z,18.49
2022-08-12T05:34:37.392Z,18.54
2022-08-12T05:35:41.789Z,18.59
2022-08-12T05:36:46.196Z,18.63
2022-08-12T05:37:50.585Z,18.69
2022-08-12T05:38:55.010Z,18.73
2022-08-12T05:39:59.882Z,18.80
2022-08-12T05:41:03.852Z,18.86
2022-08-12T05:42:08.272Z,18.92
2022-08-12T05:43:12.663Z,18.98
2022-08-12T05:44:17.097Z,19.02
2022-08-12T05:45:21.544Z,19.06
2022-08-12T05:46:26.039Z,19.08
2022-08-12T05:47:42.737Z,19.13
2022-08-12T05:48:34.888Z,19.19
2022-08-12T05:49:39.285Z,19.25
2022-08-12T05:50:43.749Z,19.32
2022-08-12T05:51:48.201Z,19.38
2022-08-12T05:52:53.028Z,19.45
2022-08-12T05:53:57.028Z,19.52
2022-08-12T05:55:01.478Z,19.57
2022-08-12T05:56:05.975Z,19.63
2022-08-12T05:57:10.328Z,19.70
2022-08-12T05:58:14.749Z,19.78
2022-08-12T05:59:19.193Z,19.84
2022-08-12T06:00:37.675Z,19.91
2022-08-12T06:02:12.324Z,20.01
2022-08-12T06:02:45.364Z,20.10
2022-08-12T06:03:49.800Z,20.23
2022-08-12T06:04:54.267Z,20.36
2022-08-12T06:05:58.699Z,20.53
2022-08-12T06:07:59.144Z,20.69
2022-08-12T06:08:07.617Z,20.82
2022-08-12T06:09:12.029Z,20.83
2022-08-12T06:10:16.489Z,20.90
2022-08-12T06:11:20.929Z,21.00
2022-08-12T06:12:25.381Z,21.01
2022-08-12T06:13:52.742Z,21.14
2022-08-12T06:14:34.184Z,21.14
2022-08-12T06:15:38.660Z,21.11
2022-08-12T06:16:43.109Z,21.18
2022-08-12T06:17:47.550Z,21.28
2022-08-12T06:18:51.974Z,21.28
2022-08-12T06:20:27.893Z,21.23
2022-08-12T06:21:01.974Z,21.28
2022-08-12T06:22:05.342Z,21.31
2022-08-12T06:23:09.764Z,21.25
2022-08-12T06:24:14.211Z,21.31
2022-08-12T06:25:21.805Z,21.30
2022-08-12T06:26:23.112Z,21.21
2022-08-12T06:27:27.558Z,21.27
2022-08-12T06:28:35.044Z,21.36
2022-08-12T06:30:08.974Z,21.29
2022-08-12T06:30:43.085Z,21.30
2022-08-12T06:31:47.521Z,21.31
2022-08-12T06:33:10.696Z,21.39
2022-08-12T06:34:00.957Z,21.32
2022-08-12T06:35:23.099Z,21.19
2022-08-12T06:36:05.267Z,21.05
2022-08-12T06:37:09.702Z,21.07
2022-08-12T06:38:14.134Z,21.10
2022-08-12T06:39:18.681Z,21.22
2022-08-12T06:40:29.015Z,21.30
2022-08-12T06:41:32.163Z,21.20
2022-08-12T06:42:36.600Z,21.18
2022-08-12T06:44:06.277Z,21.14
2022-08-12T06:44:45.563Z,21.14
2022-08-12T06:45:49.986Z,21.26
2022-08-12T06:46:54.420Z,21.41
2022-08-12T06:47:58.941Z,21.43
2022-08-12T06:49:03.295Z,21.25
2022-08-12T06:50:07.796Z,21.23
2022-08-12T06:51:12.315Z,21.11
2022-08-12T06:52:16.752Z,21.25
2022-08-12T06:53:21.177Z,21.36
2022-08-12T06:54:31.860Z,21.42
2022-08-12T06:55:30.103Z,21.37
2022-08-12T06:57:02.256Z,21.38
2022-08-12T06:57:57.314Z,21.51
2022-08-12T06:58:43.522Z,21.31
2022-08-12T06:59:47.947Z,21.40
2022-08-12T07:00:52.596Z,21.55
2022-08-12T07:01:56.987Z,21.59
2022-08-12T07:03:22.695Z,21.58
2022-08-12T07:04:26.444Z,21.30
2022-08-12T07:05:10.418Z,21.29
2022-08-12T07:06:14.889Z,21.25
2022-08-12T07:07:19.340Z,21.47
2022-08-12T07:08:23.832Z,21.26
2022-08-12T07:10:03.822Z,21.25
2022-08-12T07:10:32.756Z,21.50
2022-08-12T07:11:37.258Z,21.63
2022-08-12T07:12:42.697Z,21.55
2022-08-12T07:14:02.545Z,21.62
2022-08-12T07:14:50.652Z,21.73
2022-08-12T07:15:55.137Z,21.77
2022-08-12T07:16:59.646Z,21.92
2022-08-12T07:18:04.123Z,21.73
2022-08-12T07:19:08.571Z,21.83
2022-08-12T07:20:35.941Z,21.71
2022-08-12T07:21:17.526Z,21.75
2022-08-12T07:22:22.033Z,21.83
2022-08-12T07:23:26.594Z,21.55
2022-08-12T07:24:31.012Z,21.49
2022-08-12T07:25:40.536Z,21.48
2022-08-12T07:26:39.906Z,21.28
2022-08-12T07:27:44.417Z,21.13
2022-08-12T07:28:48.873Z,21.28
2022-08-12T07:29:58.126Z,21.26
2022-08-12T07:30:57.720Z,21.31
2022-08-12T07:32:02.188Z,21.52
2022-08-12T07:33:06.613Z,20.95
2022-08-12T07:34:11.074Z,21.11
2022-08-12T07:35:21.527Z,20.84
2022-08-12T07:36:24.651Z,20.92
2022-08-12T07:37:29.123Z,21.01
2022-08-12T07:38:33.697Z,20.95
2022-08-12T07:39:50.057Z,20.99
2022-08-12T07:40:42.442Z,20.88
2022-08-12T07:41:46.939Z,21.05
2022-08-12T07:42:51.399Z,20.83
2022-08-12T07:43:55.886Z,20.78
2022-08-12T07:45:00.328Z,20.98
2022-08-12T07:46:04.806Z,21.02
2022-08-12T07:47:09.188Z,20.94
2022-08-12T07:48:13.656Z,21.05
2022-08-12T07:49:18.222Z,21.13
2022-08-12T07:50:23.909Z,21.05
2022-08-12T07:51:27.122Z,21.20
2022-08-12T07:52:31.719Z,21.21
2022-08-12T07:53:52.006Z,20.83
2022-08-12T07:54:40.533Z,21.00
2022-08-12T07:55:45.010Z,21.16
2022-08-12T07:56:49.591Z,21.20
2022-08-12T07:57:53.996Z,21.09
2022-08-12T07:58:58.449Z,20.75
2022-08-12T08:00:02.939Z,20.71
2022-08-12T08:01:12.019Z,20.54
2022-08-12T08:02:11.803Z,20.52
2022-08-12T08:03:16.312Z,20.67
2022-08-12T08:04:20.847Z,20.82
2022-08-12T08:05:25.263Z,20.84
2022-08-12T08:06:29.732Z,20.94
2022-08-12T08:07:35.263Z,20.94
2022-08-12T08:08:39.329Z,20.85
2022-08-12T08:09:43.806Z,20.63
2022-08-12T08:10:48.259Z,20.89
2022-08-12T08:11:52.709Z,21.02
2022-08-12T08:12:57.111Z,20.93
2022-08-12T08:14:01.656Z,20.85
2022-08-12T08:15:06.157Z,20.62
2022-08-12T08:16:10.627Z,19.94
2022-08-12T08:17:15.090Z,20.16
2022-08-12T08:18:26.707Z,20.18
2022-08-12T08:19:23.985Z,20.41
2022-08-12T08:20:28.437Z,20.54
2022-08-12T08:21:32.885Z,20.47
2022-08-12T08:22:41.965Z,20.41
2022-08-12T08:23:41.842Z,20.18
2022-08-12T08:24:46.293Z,20.22
2022-08-12T08:25:50.784Z,20.35
2022-08-12T08:26:55.263Z,20.49
2022-08-12T08:27:59.704Z,20.47
2022-08-12T08:29:04.287Z,20.33
2022-08-12T08:30:08.693Z,20.61
2022-08-12T08:31:13.173Z,20.54
2022-08-12T08:32:17.665Z,20.70
2022-08-12T08:33:23.515Z,20.78
2022-08-12T08:34:33.668Z,20.78
2022-08-12T08:35:46.560Z,20.82
2022-08-12T08:36:35.510Z,20.54
2022-08-12T08:37:39.983Z,20.56
2022-08-12T08:38:44.471Z,20.56
2022-08-12T08:39:48.993Z,20.43
2022-08-12T08:40:53.365Z,20.13
2022-08-12T08:42:16.660Z,20.03
2022-08-12T08:43:02.326Z,20.23
2022-08-12T08:44:06.834Z,20.41
2022-08-12T08:45:11.313Z,20.13
2022-08-12T08:46:15.793Z,20.48
2022-08-12T08:47:20.269Z,20.43
2022-08-12T08:48:24.758Z,20.50
2022-08-12T08:49:29.202Z,20.77
2022-08-12T08:50:33.695Z,20.58
2022-08-12T08:51:38.181Z,20.69
2022-08-12T08:52:48.740Z,20.68
2022-08-12T08:53:53.021Z,20.31
2022-08-12T08:54:56.252Z,20.19
2022-08-12T08:56:04.932Z,20.56
2022-08-12T08:57:05.168Z,20.60
2022-08-12T08:58:09.664Z,20.64
2022-08-12T08:59:14.165Z,20.65
2022-08-12T09:00:18.844Z,20.58
2022-08-12T09:01:23.339Z,20.66
2022-08-12T09:02:27.763Z,20.58
2022-08-12T09:05:08.475Z,20.62
2022-08-12T09:06:02.019Z,20.43
2022-08-12T09:06:53.840Z,20.70
2022-08-12T09:08:08.841Z,20.81
2022-08-12T09:08:56.669Z,20.90
2022-08-12T09:10:02.666Z,20.92
2022-08-12T09:11:05.570Z,20.94
2022-08-12T09:12:11.934Z,20.97
2022-08-12T09:13:23.480Z,20.93
2022-08-12T09:14:29.414Z,21.04
2022-08-12T09:15:23.498Z,21.17
2022-08-12T09:16:28.003Z,20.98
2022-08-12T09:17:42.873Z,20.61
2022-08-12T09:18:36.946Z,20.83
2022-08-12T09:19:41.326Z,20.79
2022-08-12T09:20:45.842Z,21.00
2022-08-12T09:22:54.955Z,21.15
2022-08-12T09:26:08.287Z,21.53
2022-08-12T09:27:12.688Z,21.44
2022-08-12T09:30:08.683Z,20.96
2022-08-12T09:30:41.622Z,21.05
2022-08-12T09:32:06.529Z,21.36
2022-08-12T09:33:05.232Z,19.89
2022-08-12T09:34:26.508Z,19.88
2022-08-12T09:34:44.679Z,19.72
2022-08-12T09:36:05.021Z,20.14
2022-08-12T09:37:01.186Z,20.58
2022-08-12T09:38:00.810Z,20.32
2022-08-12T09:39:02.224Z,20.19
2022-08-12T09:41:03.813Z,19.92
2022-08-12T09:42:34.359Z,20.26
2022-08-12T09:42:38.675Z,19.60
2022-08-12T09:43:20.888Z,20.09
2022-08-12T09:44:39.300Z,20.14
2022-08-12T09:46:11.309Z,20.39
2022-08-12T09:46:34.536Z,20.26
2022-08-12T09:47:38.028Z,20.26
2022-08-12T09:48:44.862Z,19.87
2022-08-12T09:49:47.031Z,19.63
2022-08-12T09:50:51.898Z,19.20
2022-08-12T09:51:56.157Z,19.66
2022-08-12T09:53:04.166Z,20.05
2022-08-12T09:54:08.310Z,19.77
2022-08-12T09:56:07.168Z,20.12
2022-08-12T09:57:00.512Z,19.68
2022-08-12T09:58:44.871Z,19.62
2022-08-12T09:58:57.595Z,20.07
2022-08-12T10:00:16.324Z,19.81
2022-08-12T10:00:43.176Z,20.10
2022-08-12T10:02:42.829Z,19.78
2022-08-12T10:02:43.996Z,20.12
2022-08-12T10:04:02.867Z,19.46
2022-08-12T10:04:51.779Z,19.07
2022-08-12T10:06:27.535Z,19.24
2022-08-12T10:06:59.059Z,19.41
2022-08-12T10:08:03.719Z,19.03
2022-08-12T10:09:08.656Z,19.41
2022-08-12T10:10:24.778Z,19.28
2022-08-12T10:11:18.422Z,19.72
2022-08-12T10:12:32.816Z,19.09
2022-08-12T10:13:33.911Z,19.58
2022-08-12T10:14:34.876Z,19.54
2022-08-12T10:16:03.000Z,19.86
2022-08-12T10:16:39.730Z,19.96
2022-08-12T10:17:56.962Z,19.68
2022-08-12T10:18:51.651Z,20.00
2022-08-12T10:19:53.317Z,19.30
2022-08-12T10:20:57.414Z,19.45
2022-08-12T10:22:01.903Z,19.70
2022-08-12T10:23:06.416Z,19.38
2022-08-12T10:24:10.821Z,19.16
2022-08-12T10:25:17.698Z,19.41
2022-08-12T10:26:38.593Z,19.29
2022-08-12T10:27:24.271Z,19.48
2022-08-12T10:28:28.696Z,19.55
2022-08-12T10:30:40.769Z,19.32
2022-08-12T10:30:44.187Z,19.54
2022-08-12T10:32:19.789Z,18.60
2022-08-12T10:33:02.439Z,19.02
2022-08-12T10:34:05.289Z,19.49
2022-08-12T10:34:57.151Z,19.50
2022-08-12T10:36:00.353Z,19.48
2022-08-12T10:37:20.995Z,19.44
2022-08-12T10:38:09.221Z,19.29
2022-08-12T10:40:00.897Z,19.25
2022-08-12T10:40:31.576Z,19.50
2022-08-12T10:41:58.011Z,19.24
2022-08-12T10:42:31.774Z,19.58
2022-08-12T10:43:54.150Z,19.59
2022-08-12T10:44:40.695Z,18.30
2022-08-12T10:45:46.228Z,17.86
2022-08-12T10:46:50.093Z,18.11
2022-08-12T10:48:07.697Z,18.76
2022-08-12T10:49:06.629Z,18.16
2022-08-12T10:50:36.065Z,18.54
2022-08-12T10:51:51.875Z,18.17
2022-08-12T10:52:47.302Z,18.10
2022-08-12T10:53:19.888Z,18.08
2022-08-12T10:54:21.029Z,18.44
2022-08-12T10:55:26.102Z,18.63
2022-08-12T10:56:34.466Z,18.69
2022-08-12T10:58:12.573Z,18.61
2022-08-12T10:58:39.029Z,18.37
2022-08-12T11:00:31.450Z,18.27
2022-08-12T11:01:26.201Z,18.48
2022-08-12T11:04:18.557Z,18.90
2022-08-12T11:04:22.847Z,18.67
2022-08-12T11:04:26.005Z,18.33
2022-08-12T11:07:03.368Z,18.58
2022-08-12T11:07:10.016Z,18.96
2022-08-12T11:08:36.717Z,18.33
2022-08-12T11:08:38.754Z,18.97
2022-08-12T11:09:54.326Z,19.06
2022-08-12T11:10:28.567Z,18.43
2022-08-12T11:12:34.936Z,18.86
2022-08-12T11:12:58.918Z,18.78
2022-08-12T11:13:46.815Z,18.28
2022-08-12T11:14:48.234Z,18.35
2022-08-12T11:16:03.862Z,18.51
2022-08-12T11:17:34.562Z,18.18
2022-08-12T11:18:01.047Z,18.33
2022-08-12T11:19:05.579Z,18.71
2022-08-12T11:20:08.858Z,18.65
2022-08-12T11:21:15.917Z,18.50
2022-08-12T11:22:18.123Z,18.39
2022-08-12T11:23:25.362Z,18.83
2022-08-12T11:24:30.472Z,19.05
2022-08-12T11:25:55.581Z,19.22
2022-08-12T11:26:35.822Z,18.58
2022-08-12T11:27:40.538Z,18.50
2022-08-12T11:28:44.851Z,18.92
2022-08-12T11:30:05.948Z,19.02
2022-08-12T11:30:53.845Z,18.67
2022-08-12T11:32:02.611Z,19.25
2022-08-12T11:33:24.172Z,19.08
2022-08-12T11:34:51.553Z,18.81
2022-08-12T11:35:21.989Z,18.55
2022-08-12T11:36:32.428Z,19.24
2022-08-12T11:37:59.060Z,19.19
2022-08-12T11:38:40.031Z,18.76
2022-08-12T11:40:48.969Z,18.56
2022-08-12T11:41:54.090Z,18.55
2022-08-12T11:43:17.872Z,18.94
2022-08-12T11:44:34.952Z,18.92
2022-08-12T11:45:10.361Z,19.14
2022-08-12T11:46:11.509Z,19.07
2022-08-12T11:47:15.931Z,19.26
2022-08-12T11:48:20.437Z,19.08
2022-08-12T11:49:31.719Z,19.33
2022-08-12T11:50:32.196Z,19.09
2022-08-12T11:51:36.358Z,19.54
2022-08-12T11:52:55.434Z,19.00
2022-08-12T11:53:58.282Z,19.06
2022-08-12T11:54:50.969Z,19.09
2022-08-12T11:55:54.043Z,19.08
2022-08-12T11:57:00.193Z,19.21
2022-08-12T11:58:40.497Z,19.62
2022-08-12T12:02:01.888Z,19.67
2022-08-12T12:03:48.557Z,19.55
2022-08-12T12:04:53.841Z,18.96
2022-08-12T12:06:00.602Z,18.76
2022-08-12T12:07:07.207Z,18.91
2022-08-12T12:08:37.700Z,19.73
2022-08-12T12:09:10.806Z,19.30
2022-08-12T12:10:15.365Z,19.79
2022-08-12T12:11:19.767Z,20.10
2022-08-12T12:12:25.262Z,19.66
2022-08-12T12:14:07.836Z,19.79
2022-08-12T12:14:38.223Z,19.68
2022-08-12T12:15:41.108Z,20.06
2022-08-12T12:16:50.048Z,20.55
2022-08-12T12:17:46.765Z,19.64
2022-08-12T12:18:51.263Z,19.83
2022-08-12T12:19:55.717Z,19.42
2022-08-12T12:21:00.227Z,19.95
2022-08-12T12:22:04.665Z,19.85
2022-08-12T12:23:15.297Z,19.58
2022-08-12T12:24:13.639Z,20.28
2022-08-12T12:25:19.794Z,19.81
2022-08-12T12:26:35.282Z,19.63
2022-08-12T12:27:39.286Z,19.45
2022-08-12T12:28:37.924Z,19.62
2022-08-12T12:30:17.722Z,19.73
2022-08-12T12:30:40.640Z,19.68
2022-08-12T12:32:10.261Z,19.77
2022-08-12T12:32:53.415Z,19.80
2022-08-12T12:33:58.287Z,19.66
2022-08-12T12:35:14.456Z,20.10
2022-08-12T12:36:18.460Z,20.23
2022-08-12T12:37:07.569Z,20.65
2022-08-12T12:38:12.744Z,20.48
2022-08-12T12:39:16.618Z,20.84
2022-08-12T12:40:21.133Z,20.90
2022-08-12T12:42:41.840Z,21.11
2022-08-12T12:42:43.738Z,21.38
2022-08-12T12:43:42.831Z,21.53
2022-08-12T12:44:42.111Z,21.10
2022-08-12T12:45:44.661Z,20.25
2022-08-12T12:46:48.155Z,20.18
2022-08-12T12:47:52.677Z,20.67
2022-08-12T12:48:57.189Z,20.86
2022-08-12T12:50:01.723Z,20.37
2022-08-12T12:51:06.254Z,20.16
2022-08-12T12:52:18.661Z,20.44
2022-08-12T12:54:05.252Z,20.01
2022-08-12T12:54:22.357Z,20.15
2022-08-12T12:55:24.188Z,20.31
2022-08-12T12:56:33.833Z,20.37
2022-08-12T12:57:36.247Z,20.47
2022-08-12T12:58:37.726Z,20.25
2022-08-12T12:59:56.216Z,20.20
2022-08-12T13:00:49.983Z,20.23
2022-08-12T13:01:51.399Z,20.30
2022-08-12T13:02:55.845Z,20.50
2022-08-12T13:04:02.208Z,20.58
2022-08-12T13:05:13.854Z,20.57
2022-08-12T13:06:09.504Z,20.63
2022-08-12T13:07:14.002Z,20.61
2022-08-12T13:08:18.498Z,20.59
2022-08-12T13:09:23.024Z,20.42
2022-08-12T13:10:30.707Z,20.71
2022-08-12T13:11:41.884Z,20.70
2022-08-12T13:12:37.464Z,20.86
2022-08-12T13:14:06.835Z,20.49
2022-08-12T13:14:50.399Z,20.16
2022-08-12T13:16:14.445Z,20.09
2022-08-12T13:17:14.686Z,20.20
2022-08-12T13:18:16.875Z,19.83
2022-08-12T13:19:25.439Z,19.93
2022-08-12T13:20:38.197Z,19.91
2022-08-12T13:21:33.072Z,20.12
2022-08-12T13:22:35.013Z,20.37
2022-08-12T13:23:39.469Z,20.13
2022-08-12T13:24:44.021Z,20.12
2022-08-12T13:25:48.509Z,20.03
2022-08-12T13:26:52.989Z,20.00
2022-08-12T13:27:57.508Z,19.69
2022-08-12T13:29:02.036Z,19.56
2022-08-12T13:30:10.654Z,19.60
2022-08-12T13:31:11.052Z,19.31
2022-08-12T13:32:19.449Z,19.47
2022-08-12T13:33:20.073Z,19.47
2022-08-12T13:34:33.583Z,19.34
2022-08-12T13:35:32.967Z,19.44
2022-08-12T13:36:33.627Z,19.35
2022-08-12T13:37:43.996Z,19.31
2022-08-12T13:38:42.630Z,19.42
2022-08-12T13:39:47.159Z,19.29
2022-08-12T13:40:51.642Z,19.49
2022-08-12T13:41:56.209Z,19.64
2022-08-12T13:43:00.707Z,19.36
2022-08-12T13:44:05.139Z,19.13
2022-08-12T13:45:09.704Z,19.11
2022-08-12T13:46:14.183Z,19.12
2022-08-12T13:47:20.699Z,19.27
2022-08-12T13:48:23.182Z,19.20
2022-08-12T13:49:54.799Z,19.18
2022-08-12T13:50:32.098Z,19.07
2022-08-12T13:51:41.151Z,18.83
2022-08-12T13:52:41.453Z,18.71
2022-08-12T13:53:57.801Z,18.82
2022-08-12T13:54:56.259Z,18.58
2022-08-12T13:55:59.542Z,18.63
2022-08-12T13:56:59.100Z,18.37
2022-08-12T13:58:03.710Z,18.37
2022-08-12T13:59:08.534Z,18.50
2022-08-12T14:00:12.655Z,18.56
2022-08-12T14:01:17.150Z,18.60